sensor_id;sensor_type;location;lat;lon;timestamp;P1;durP1;ratioP1;P2;durP2;ratioP2
3817;SDS011;1924;48.078;11.516;2022-08-07T00:01:15;34.90;;;0.80;;
3817;SDS011;1924;48.078;11.516;2022-08-07T00:03:43;35.00;;;0.80;;
3817;SDS011;1924;48.078;11.516;2022-08-07T00:06:11;34.80;;;0.80;;
3817;SDS011;1924;48.078;11.516;2022-08-07T00:08:38;34.97;;;0.90;;
3817;SDS011;1924;48.078;11.516;2022-08-07T00:11:05;34.93;;;0.80;;
3817;SDS011;1924;48.078;11.516;2022-08-07T00:13:33;34.97;;;0.80;;
3817;SDS011;1924;48.078;11.516;2022-08-07T00:16:01;35.00;;;0.80;;
3817;SDS011;1924;48.078;11.516;2022-08-07T00:18:29;35.03;;;0.80;;
3817;SDS011;1924;48.078;11.516;2022-08-07T00:20:57;34.87;;;0.80;;
3817;SDS011;1924;48.078;11.516;2022-08-07T00:23:26;35.20;;;0.80;;
3817;SDS011;1924;48.078;11.516;2022-08-07T00:25:54;35.07;;;0.80;;
3817;SDS011;1924;48.078;11.516;2022-08-07T00:28:21;34.93;;;0.80;;
3817;SDS011;1924;48.078;11.516;2022-08-07T00:30:48;35.20;;;0.80;;
3817;SDS011;1924;48.078;11.516;2022-08-07T00:33:15;35.10;;;0.80;;
3817;SDS011;1924;48.078;11.516;2022-08-07T00:35:42;35.20;;;0.90;;
3817;SDS011;1924;48.078;11.516;2022-08-07T00:38:08;35.20;;;0.80;;
3817;SDS011;1924;48.078;11.516;2022-08-07T00:40:37;35.07;;;0.80;;
3817;SDS011;1924;48.078;11.516;2022-08-07T00:43:04;35.07;;;0.80;;
3817;SDS011;1924;48.078;11.516;2022-08-07T00:45:31;35.03;;;0.80;;
3817;SDS011;1924;48.078;11.516;2022-08-07T00:47:58;35.10;;;0.80;;
3817;SDS011;1924;48.078;11.516;2022-08-07T00:50:24;35.10;;;0.80;;
3817;SDS011;1924;48.078;11.516;2022-08-07T00:52:51;35.23;;;0.80;;
3817;SDS011;1924;48.078;11.516;2022-08-07T00:55:18;34.90;;;0.80;;
3817;SDS011;1924;48.078;11.516;2022-08-07T00:57:46;35.27;;;0.80;;
3817;SDS011;1924;48.078;11.516;2022-08-07T01:00:13;34.87;;;0.80;;
3817;SDS011;1924;48.078;11.516;2022-08-07T01:02:41;35.03;;;0.80;;
3817;SDS011;1924;48.078;11.516;2022-08-07T01:05:08;35.10;;;0.80;;
3817;SDS011;1924;48.078;11.516;2022-08-07T01:07:36;34.90;;;0.80;;
3817;SDS011;1924;48.078;11.516;2022-08-07T01:10:03;35.03;;;0.80;;
3817;SDS011;1924;48.078;11.516;2022-08-07T01:12:30;35.10;;;0.80;;
3817;SDS011;1924;48.078;11.516;2022-08-07T01:15:08;34.83;;;0.80;;
3817;SDS011;1924;48.078;11.516;2022-08-07T01:17:35;35.00;;;0.80;;
3817;SDS011;1924;48.078;11.516;2022-08-07T01:20:03;34.77;;;0.80;;
3817;SDS011;1924;48.078;11.516;2022-08-07T01:22:33;35.10;;;0.80;;
3817;SDS011;1924;48.078;11.516;2022-08-07T01:25:01;35.00;;;0.80;;
3817;SDS011;1924;48.078;11.516;2022-08-07T01:27:28;34.97;;;0.80;;
3817;SDS011;1924;48.078;11.516;2022-08-07T01:29:55;34.97;;;0.80;;
3817;SDS011;1924;48.078;11.516;2022-08-07T01:32:22;34.83;;;0.80;;
3817;SDS011;1924;48.078;11.516;2022-08-07T01:34:49;34.87;;;0.80;;
3817;SDS011;1924;48.078;11.516;2022-08-07T01:37:16;34.90;;;0.80;;
3817;SDS011;1924;48.078;11.516;2022-08-07T01:39:45;34.53;;;0.80;;
3817;SDS011;1924;48.078;11.516;2022-08-07T01:42:13;34.93;;;0.80;;
3817;SDS011;1924;48.078;11.516;2022-08-07T01:44:40;34.97;;;0.80;;
3817;SDS011;1924;48.078;11.516;2022-08-07T01:47:07;34.70;;;0.80;;
3817;SDS011;1924;48.078;11.516;2022-08-07T01:49:34;34.63;;;0.80;;
3817;SDS011;1924;48.078;11.516;2022-08-07T01:52:02;34.73;;;0.80;;
3817;SDS011;1924;48.078;11.516;2022-08-07T01:54:32;34.80;;;0.80;;
3817;SDS011;1924;48.078;11.516;2022-08-07T01:57:04;34.53;;;0.80;;
3817;SDS011;1924;48.078;11.516;2022-08-07T01:59:35;34.70;;;0.80;;
3817;SDS011;1924;48.078;11.516;2022-08-07T02:02:12;34.70;;;0.80;;
3817;SDS011;1924;48.078;11.516;2022-08-07T02:04:46;34.57;;;0.80;;
3817;SDS011;1924;48.078;11.516;2022-08-07T02:07:19;34.73;;;0.80;;
3817;SDS011;1924;48.078;11.516;2022-08-07T02:09:55;34.60;;;0.80;;
3817;SDS011;1924;48.078;11.516;2022-08-07T02:12:25;34.50;;;0.80;;
3817;SDS011;1924;48.078;11.516;2022-08-07T02:14:56;34.37;;;0.80;;
3817;SDS011;1924;48.078;11.516;2022-08-07T02:17:28;34.70;;;0.80;;
3817;SDS011;1924;48.078;11.516;2022-08-07T02:19:55;34.30;;;0.80;;
3817;SDS011;1924;48.078;11.516;2022-08-07T02:22:25;34.60;;;0.80;;
3817;SDS011;1924;48.078;11.516;2022-08-07T02:24:54;34.50;;;0.80;;
3817;SDS011;1924;48.078;11.516;2022-08-07T02:27:22;34.47;;;0.80;;
3817;SDS011;1924;48.078;11.516;2022-08-07T02:29:53;34.63;;;0.80;;
3817;SDS011;1924;48.078;11.516;2022-08-07T02:32:22;34.57;;;0.80;;
3817;SDS011;1924;48.078;11.516;2022-08-07T02:34:50;34.53;;;0.80;;
3817;SDS011;1924;48.078;11.516;2022-08-07T02:37:19;34.53;;;0.80;;
3817;SDS011;1924;48.078;11.516;2022-08-07T02:39:48;34.60;;;0.80;;
3817;SDS011;1924;48.078;11.516;2022-08-07T02:42:17;34.70;;;0.80;;
3817;SDS011;1924;48.078;11.516;2022-08-07T02:44:47;34.43;;;0.80;;
3817;SDS011;1924;48.078;11.516;2022-08-07T02:47:15;34.27;;;0.80;;
3817;SDS011;1924;48.078;11.516;2022-08-07T02:49:43;34.27;;;0.80;;
3817;SDS011;1924;48.078;11.516;2022-08-07T02:52:10;34.53;;;0.80;;
3817;SDS011;1924;48.078;11.516;2022-08-07T02:54:42;34.60;;;0.80;;
3817;SDS011;1924;48.078;11.516;2022-08-07T02:57:11;34.57;;;0.90;;
3817;SDS011;1924;48.078;11.516;2022-08-07T02:59:39;34.60;;;0.80;;
3817;SDS011;1924;48.078;11.516;2022-08-07T03:02:11;34.60;;;0.80;;
3817;SDS011;1924;48.078;11.516;2022-08-07T03:04:39;34.63;;;0.80;;
3817;SDS011;1924;48.078;11.516;2022-08-07T03:07:07;34.67;;;0.80;;
3817;SDS011;1924;48.078;11.516;2022-08-07T03:09:35;34.33;;;0.80;;
3817;SDS011;1924;48.078;11.516;2022-08-07T03:12:03;34.47;;;0.80;;
3817;SDS011;1924;48.078;11.516;2022-08-07T03:14:30;34.27;;;0.80;;
3817;SDS011;1924;48.078;11.516;2022-08-07T03:17:00;34.40;;;0.80;;
3817;SDS011;1924;48.078;11.516;2022-08-07T03:19:28;34.30;;;0.80;;
3817;SDS011;1924;48.078;11.516;2022-08-07T03:21:56;34.37;;;0.80;;
3817;SDS011;1924;48.078;11.516;2022-08-07T03:24:23;34.30;;;0.80;;
3817;SDS011;1924;48.078;11.516;2022-08-07T03:26:50;34.37;;;0.80;;
3817;SDS011;1924;48.078;11.516;2022-08-07T03:29:19;34.37;;;0.80;;
3817;SDS011;1924;48.078;11.516;2022-08-07T03:31:52;34.33;;;0.80;;
3817;SDS011;1924;48.078;11.516;2022-08-07T03:34:20;34.40;;;0.80;;
3817;SDS011;1924;48.078;11.516;2022-08-07T03:36:49;34.40;;;0.90;;
3817;SDS011;1924;48.078;11.516;2022-08-07T03:39:18;34.50;;;0.80;;
3817;SDS011;1924;48.078;11.516;2022-08-07T03:41:45;34.27;;;0.80;;
3817;SDS011;1924;48.078;11.516;2022-08-07T03:44:13;34.00;;;0.80;;
3817;SDS011;1924;48.078;11.516;2022-08-07T03:46:40;34.30;;;0.80;;
3817;SDS011;1924;48.078;11.516;2022-08-07T03:49:08;34.13;;;0.80;;
3817;SDS011;1924;48.078;11.516;2022-08-07T03:51:35;34.40;;;0.80;;
3817;SDS011;1924;48.078;11.516;2022-08-07T03:54:04;34.27;;;0.90;;
3817;SDS011;1924;48.078;11.516;2022-08-07T03:56:31;34.23;;;0.80;;
3817;SDS011;1924;48.078;11.516;2022-08-07T03:59:00;34.33;;;0.80;;
3817;SDS011;1924;48.078;11.516;2022-08-07T04:01:27;34.37;;;0.80;;
3817;SDS011;1924;48.078;11.516;2022-08-07T04:03:56;34.10;;;0.80;;
3817;SDS011;1924;48.078;11.516;2022-08-07T04:06:23;34.13;;;0.80;;
3817;SDS011;1924;48.078;11.516;2022-08-07T04:08:51;34.40;;;0.80;;
3817;SDS011;1924;48.078;11.516;2022-08-07T04:11:20;34.30;;;0.80;;
3817;SDS011;1924;48.078;11.516;2022-08-07T04:13:46;34.07;;;0.80;;
3817;SDS011;1924;48.078;11.516;2022-08-07T04:16:15;34.07;;;0.80;;
3817;SDS011;1924;48.078;11.516;2022-08-07T04:18:42;34.17;;;0.80;;
3817;SDS011;1924;48.078;11.516;2022-08-07T04:21:09;34.23;;;0.80;;
3817;SDS011;1924;48.078;11.516;2022-08-07T04:23:36;34.10;;;0.80;;
3817;SDS011;1924;48.078;11.516;2022-08-07T04:26:23;34.17;;;0.80;;
3817;SDS011;1924;48.078;11.516;2022-08-07T04:28:50;34.13;;;0.80;;
3817;SDS011;1924;48.078;11.516;2022-08-07T04:31:17;34.20;;;0.80;;
3817;SDS011;1924;48.078;11.516;2022-08-07T04:33:45;34.17;;;0.80;;
3817;SDS011;1924;48.078;11.516;2022-08-07T04:36:21;34.20;;;0.80;;
3817;SDS011;1924;48.078;11.516;2022-08-07T04:38:49;34.30;;;0.80;;
3817;SDS011;1924;48.078;11.516;2022-08-07T04:41:16;34.20;;;0.80;;
3817;SDS011;1924;48.078;11.516;2022-08-07T04:43:44;33.93;;;0.80;;
3817;SDS011;1924;48.078;11.516;2022-08-07T04:46:12;34.13;;;0.80;;
3817;SDS011;1924;48.078;11.516;2022-08-07T04:48:44;34.07;;;0.80;;
3817;SDS011;1924;48.078;11.516;2022-08-07T04:51:18;34.20;;;0.80;;
3817;SDS011;1924;48.078;11.516;2022-08-07T04:53:51;34.23;;;0.90;;
3817;SDS011;1924;48.078;11.516;2022-08-07T04:56:25;34.00;;;0.80;;
3817;SDS011;1924;48.078;11.516;2022-08-07T04:58:59;34.17;;;0.80;;
3817;SDS011;1924;48.078;11.516;2022-08-07T05:01:39;34.07;;;0.80;;
3817;SDS011;1924;48.078;11.516;2022-08-07T05:04:13;33.87;;;0.80;;
3817;SDS011;1924;48.078;11.516;2022-08-07T05:06:46;34.17;;;0.80;;
3817;SDS011;1924;48.078;11.516;2022-08-07T05:09:28;34.20;;;0.80;;
3817;SDS011;1924;48.078;11.516;2022-08-07T05:12:02;34.20;;;0.80;;
3817;SDS011;1924;48.078;11.516;2022-08-07T05:14:35;34.07;;;0.80;;
3817;SDS011;1924;48.078;11.516;2022-08-07T05:17:03;33.97;;;0.80;;
3817;SDS011;1924;48.078;11.516;2022-08-07T05:19:34;34.13;;;0.80;;
3817;SDS011;1924;48.078;11.516;2022-08-07T05:22:06;34.23;;;0.80;;
3817;SDS011;1924;48.078;11.516;2022-08-07T05:24:35;34.17;;;0.80;;
3817;SDS011;1924;48.078;11.516;2022-08-07T05:27:07;34.17;;;0.80;;
3817;SDS011;1924;48.078;11.516;2022-08-07T05:29:38;34.07;;;0.80;;
3817;SDS011;1924;48.078;11.516;2022-08-07T05:32:08;34.23;;;0.80;;
3817;SDS011;1924;48.078;11.516;2022-08-07T05:34:39;34.40;;;0.80;;
3817;SDS011;1924;48.078;11.516;2022-08-07T05:37:06;34.50;;;0.80;;
3817;SDS011;1924;48.078;11.516;2022-08-07T05:39:34;34.37;;;0.80;;
3817;SDS011;1924;48.078;11.516;2022-08-07T05:42:02;34.23;;;0.80;;
3817;SDS011;1924;48.078;11.516;2022-08-07T05:44:30;34.50;;;0.80;;
3817;SDS011;1924;48.078;11.516;2022-08-07T05:47:01;34.17;;;0.80;;
3817;SDS011;1924;48.078;11.516;2022-08-07T05:49:29;34.43;;;0.80;;
3817;SDS011;1924;48.078;11.516;2022-08-07T05:51:57;34.50;;;0.80;;
3817;SDS011;1924;48.078;11.516;2022-08-07T05:54:28;34.10;;;0.80;;
3817;SDS011;1924;48.078;11.516;2022-08-07T05:56:55;34.33;;;0.80;;
3817;SDS011;1924;48.078;11.516;2022-08-07T05:59:22;34.40;;;0.80;;
3817;SDS011;1924;48.078;11.516;2022-08-07T06:01:51;34.27;;;0.80;;
3817;SDS011;1924;48.078;11.516;2022-08-07T06:04:21;34.27;;;0.80;;
3817;SDS011;1924;48.078;11.516;2022-08-07T06:06:51;34.37;;;0.80;;
3817;SDS011;1924;48.078;11.516;2022-08-07T06:09:18;34.07;;;0.80;;
3817;SDS011;1924;48.078;11.516;2022-08-07T06:11:45;34.40;;;0.80;;
3817;SDS011;1924;48.078;11.516;2022-08-07T06:14:12;34.17;;;0.80;;
3817;SDS011;1924;48.078;11.516;2022-08-07T06:16:39;34.27;;;0.80;;
3817;SDS011;1924;48.078;11.516;2022-08-07T06:19:10;34.23;;;0.80;;
3817;SDS011;1924;48.078;11.516;2022-08-07T06:21:40;34.10;;;0.80;;
3817;SDS011;1924;48.078;11.516;2022-08-07T06:24:09;34.07;;;0.80;;
3817;SDS011;1924;48.078;11.516;2022-08-07T06:26:37;34.00;;;0.80;;
3817;SDS011;1924;48.078;11.516;2022-08-07T06:29:04;34.17;;;0.80;;
3817;SDS011;1924;48.078;11.516;2022-08-07T06:31:31;34.17;;;0.80;;
3817;SDS011;1924;48.078;11.516;2022-08-07T06:33:58;34.07;;;0.80;;
3817;SDS011;1924;48.078;11.516;2022-08-07T06:36:24;33.93;;;0.80;;
3817;SDS011;1924;48.078;11.516;2022-08-07T06:38:53;34.10;;;0.80;;
3817;SDS011;1924;48.078;11.516;2022-08-07T06:41:21;34.10;;;0.80;;
3817;SDS011;1924;48.078;11.516;2022-08-07T06:43:53;34.20;;;0.90;;
3817;SDS011;1924;48.078;11.516;2022-08-07T06:46:21;34.13;;;0.80;;
3817;SDS011;1924;48.078;11.516;2022-08-07T06:48:48;34.00;;;0.80;;
3817;SDS011;1924;48.078;11.516;2022-08-07T06:51:16;33.97;;;0.80;;
3817;SDS011;1924;48.078;11.516;2022-08-07T06:53:45;34.10;;;0.80;;
3817;SDS011;1924;48.078;11.516;2022-08-07T06:56:15;34.07;;;0.80;;
3817;SDS011;1924;48.078;11.516;2022-08-07T06:59:03;33.97;;;0.80;;
3817;SDS011;1924;48.078;11.516;2022-08-07T07:01:32;34.07;;;0.80;;
3817;SDS011;1924;48.078;11.516;2022-08-07T07:04:00;33.97;;;0.80;;
3817;SDS011;1924;48.078;11.516;2022-08-07T07:06:29;33.90;;;0.80;;
3817;SDS011;1924;48.078;11.516;2022-08-07T07:11:42;34.40;;;0.90;;
3817;SDS011;1924;48.078;11.516;2022-08-07T07:14:14;34.10;;;0.80;;
3817;SDS011;1924;48.078;11.516;2022-08-07T07:16:43;34.10;;;0.80;;
3817;SDS011;1924;48.078;11.516;2022-08-07T07:19:11;33.97;;;0.80;;
3817;SDS011;1924;48.078;11.516;2022-08-07T07:21:43;34.07;;;0.80;;
3817;SDS011;1924;48.078;11.516;2022-08-07T07:24:10;34.07;;;0.80;;
3817;SDS011;1924;48.078;11.516;2022-08-07T07:26:37;33.97;;;0.80;;
3817;SDS011;1924;48.078;11.516;2022-08-07T07:29:10;34.10;;;0.80;;
3817;SDS011;1924;48.078;11.516;2022-08-07T07:31:38;34.13;;;0.80;;
3817;SDS011;1924;48.078;11.516;2022-08-07T07:34:09;34.07;;;0.80;;
3817;SDS011;1924;48.078;11.516;2022-08-07T07:39:14;34.20;;;0.80;;
3817;SDS011;1924;48.078;11.516;2022-08-07T07:41:43;34.03;;;0.80;;
3817;SDS011;1924;48.078;11.516;2022-08-07T07:44:14;34.13;;;0.80;;
3817;SDS011;1924;48.078;11.516;2022-08-07T07:46:43;34.03;;;0.80;;
3817;SDS011;1924;48.078;11.516;2022-08-07T07:49:11;34.10;;;0.80;;
3817;SDS011;1924;48.078;11.516;2022-08-07T07:51:42;33.97;;;0.80;;
3817;SDS011;1924;48.078;11.516;2022-08-07T07:54:10;33.83;;;0.80;;
3817;SDS011;1924;48.078;11.516;2022-08-07T07:56:39;33.90;;;0.80;;
3817;SDS011;1924;48.078;11.516;2022-08-07T07:59:08;33.70;;;0.80;;
3817;SDS011;1924;48.078;11.516;2022-08-07T08:01:39;33.77;;;0.80;;
3817;SDS011;1924;48.078;11.516;2022-08-07T08:04:08;33.73;;;0.80;;
3817;SDS011;1924;48.078;11.516;2022-08-07T08:06:36;33.70;;;0.80;;
3817;SDS011;1924;48.078;11.516;2022-08-07T08:09:04;33.53;;;0.80;;
3817;SDS011;1924;48.078;11.516;2022-08-07T08:11:33;33.67;;;0.80;;
3817;SDS011;1924;48.078;11.516;2022-08-07T08:14:00;33.70;;;0.80;;
3817;SDS011;1924;48.078;11.516;2022-08-07T08:16:28;33.67;;;0.80;;
3817;SDS011;1924;48.078;11.516;2022-08-07T08:19:00;33.57;;;0.80;;
3817;SDS011;1924;48.078;11.516;2022-08-07T08:21:29;33.43;;;0.80;;
3817;SDS011;1924;48.078;11.516;2022-08-07T08:24:16;33.40;;;0.80;;
3817;SDS011;1924;48.078;11.516;2022-08-07T08:27:16;33.43;;;0.80;;
3817;SDS011;1924;48.078;11.516;2022-08-07T08:29:45;33.40;;;0.80;;
3817;SDS011;1924;48.078;11.516;2022-08-07T08:32:16;33.60;;;0.80;;
3817;SDS011;1924;48.078;11.516;2022-08-07T08:34:47;33.53;;;0.80;;
3817;SDS011;1924;48.078;11.516;2022-08-07T08:37:16;33.30;;;0.80;;
3817;SDS011;1924;48.078;11.516;2022-08-07T08:39:44;33.30;;;0.80;;
3817;SDS011;1924;48.078;11.516;2022-08-07T08:42:16;33.40;;;0.80;;
3817;SDS011;1924;48.078;11.516;2022-08-07T08:44:51;33.23;;;0.80;;
3817;SDS011;1924;48.078;11.516;2022-08-07T08:47:24;33.13;;;0.80;;
3817;SDS011;1924;48.078;11.516;2022-08-07T08:49:58;33.10;;;0.80;;
3817;SDS011;1924;48.078;11.516;2022-08-07T08:52:33;33.40;;;0.80;;
3817;SDS011;1924;48.078;11.516;2022-08-07T08:55:05;33.17;;;0.80;;
3817;SDS011;1924;48.078;11.516;2022-08-07T08:57:39;33.27;;;0.80;;
3817;SDS011;1924;48.078;11.516;2022-08-07T09:00:12;33.33;;;0.80;;
3817;SDS011;1924;48.078;11.516;2022-08-07T09:02:46;33.50;;;0.80;;
3817;SDS011;1924;48.078;11.516;2022-08-07T09:05:36;33.30;;;0.80;;
3817;SDS011;1924;48.078;11.516;2022-08-07T09:08:16;33.23;;;0.80;;
3817;SDS011;1924;48.078;11.516;2022-08-07T09:10:53;33.33;;;0.80;;
3817;SDS011;1924;48.078;11.516;2022-08-07T09:13:29;33.40;;;0.80;;
3817;SDS011;1924;48.078;11.516;2022-08-07T09:16:03;33.23;;;0.80;;
3817;SDS011;1924;48.078;11.516;2022-08-07T09:21:34;33.40;;;0.80;;
3817;SDS011;1924;48.078;11.516;2022-08-07T09:24:13;33.40;;;0.80;;
3817;SDS011;1924;48.078;11.516;2022-08-07T09:26:55;33.30;;;0.80;;
3817;SDS011;1924;48.078;11.516;2022-08-07T09:29:38;33.30;;;0.80;;
3817;SDS011;1924;48.078;11.516;2022-08-07T09:32:12;33.40;;;0.80;;
3817;SDS011;1924;48.078;11.516;2022-08-07T09:34:49;33.30;;;0.80;;
3817;SDS011;1924;48.078;11.516;2022-08-07T09:37:27;33.30;;;0.80;;
3817;SDS011;1924;48.078;11.516;2022-08-07T09:40:02;33.07;;;0.80;;
3817;SDS011;1924;48.078;11.516;2022-08-07T09:42:39;33.13;;;0.80;;
3817;SDS011;1924;48.078;11.516;2022-08-07T09:45:14;33.27;;;0.80;;
3817;SDS011;1924;48.078;11.516;2022-08-07T09:47:48;33.33;;;0.80;;
3817;SDS011;1924;48.078;11.516;2022-08-07T09:50:25;33.17;;;0.80;;
3817;SDS011;1924;48.078;11.516;2022-08-07T09:53:03;33.10;;;0.80;;
3817;SDS011;1924;48.078;11.516;2022-08-07T09:55:37;33.00;;;0.80;;
3817;SDS011;1924;48.078;11.516;2022-08-07T09:58:28;33.00;;;0.80;;
3817;SDS011;1924;48.078;11.516;2022-08-07T10:01:20;32.90;;;0.80;;
3817;SDS011;1924;48.078;11.516;2022-08-07T10:04:05;32.93;;;0.80;;
3817;SDS011;1924;48.078;11.516;2022-08-07T10:06:48;33.03;;;0.80;;
3817;SDS011;1924;48.078;11.516;2022-08-07T10:09:53;32.97;;;0.80;;
3817;SDS011;1924;48.078;11.516;2022-08-07T10:12:46;33.00;;;0.80;;
3817;SDS011;1924;48.078;11.516;2022-08-07T10:15:33;33.17;;;0.80;;
3817;SDS011;1924;48.078;11.516;2022-08-07T10:21:17;33.30;;;0.80;;
3817;SDS011;1924;48.078;11.516;2022-08-07T10:24:00;33.20;;;0.80;;
3817;SDS011;1924;48.078;11.516;2022-08-07T10:26:40;33.20;;;0.80;;
3817;SDS011;1924;48.078;11.516;2022-08-07T10:29:25;33.33;;;0.80;;
3817;SDS011;1924;48.078;11.516;2022-08-07T10:32:25;33.37;;;0.80;;
3817;SDS011;1924;48.078;11.516;2022-08-07T10:35:06;33.37;;;0.80;;
3817;SDS011;1924;48.078;11.516;2022-08-07T10:37:42;33.40;;;0.80;;
3817;SDS011;1924;48.078;11.516;2022-08-07T10:40:26;33.40;;;0.80;;
3817;SDS011;1924;48.078;11.516;2022-08-07T10:42:59;33.23;;;0.80;;
3817;SDS011;1924;48.078;11.516;2022-08-07T10:45:32;33.07;;;0.80;;
3817;SDS011;1924;48.078;11.516;2022-08-07T10:48:05;32.93;;;0.80;;
3817;SDS011;1924;48.078;11.516;2022-08-07T10:50:41;32.80;;;0.80;;
3817;SDS011;1924;48.078;11.516;2022-08-07T10:53:14;33.17;;;0.80;;
3817;SDS011;1924;48.078;11.516;2022-08-07T10:55:50;33.07;;;0.80;;
3817;SDS011;1924;48.078;11.516;2022-08-07T11:01:24;33.00;;;0.80;;
3817;SDS011;1924;48.078;11.516;2022-08-07T11:04:01;32.87;;;0.80;;
3817;SDS011;1924;48.078;11.516;2022-08-07T11:06:35;32.87;;;0.80;;
3817;SDS011;1924;48.078;11.516;2022-08-07T11:09:15;32.97;;;0.80;;
3817;SDS011;1924;48.078;11.516;2022-08-07T11:11:45;32.90;;;0.80;;
3817;SDS011;1924;48.078;11.516;2022-08-07T11:14:21;32.87;;;0.80;;
3817;SDS011;1924;48.078;11.516;2022-08-07T11:16:52;32.70;;;0.80;;
3817;SDS011;1924;48.078;11.516;2022-08-07T11:19:23;32.73;;;0.80;;
3817;SDS011;1924;48.078;11.516;2022-08-07T11:21:58;32.87;;;0.80;;
3817;SDS011;1924;48.078;11.516;2022-08-07T11:24:32;32.67;;;0.80;;
3817;SDS011;1924;48.078;11.516;2022-08-07T11:27:06;32.80;;;0.80;;
3817;SDS011;1924;48.078;11.516;2022-08-07T11:29:39;32.77;;;0.80;;
3817;SDS011;1924;48.078;11.516;2022-08-07T11:32:14;32.70;;;0.80;;
3817;SDS011;1924;48.078;11.516;2022-08-07T11:34:44;33.00;;;0.80;;
3817;SDS011;1924;48.078;11.516;2022-08-07T11:37:16;33.00;;;0.80;;
3817;SDS011;1924;48.078;11.516;2022-08-07T11:40:06;32.87;;;0.80;;
3817;SDS011;1924;48.078;11.516;2022-08-07T11:42:41;33.10;;;0.80;;
3817;SDS011;1924;48.078;11.516;2022-08-07T11:45:19;33.23;;;0.80;;
3817;SDS011;1924;48.078;11.516;2022-08-07T11:48:06;33.47;;;0.80;;
3817;SDS011;1924;48.078;11.516;2022-08-07T11:50:48;33.47;;;0.80;;
3817;SDS011;1924;48.078;11.516;2022-08-07T11:53:35;33.70;;;0.80;;
3817;SDS011;1924;48.078;11.516;2022-08-07T11:56:15;33.73;;;0.80;;
3817;SDS011;1924;48.078;11.516;2022-08-07T11:58:53;33.77;;;0.80;;
3817;SDS011;1924;48.078;11.516;2022-08-07T12:01:34;33.70;;;0.80;;
3817;SDS011;1924;48.078;11.516;2022-08-07T12:04:33;33.63;;;0.80;;
3817;SDS011;1924;48.078;11.516;2022-08-07T12:07:16;33.57;;;0.80;;
3817;SDS011;1924;48.078;11.516;2022-08-07T12:09:49;33.70;;;0.80;;
3817;SDS011;1924;48.078;11.516;2022-08-07T12:12:23;33.87;;;0.80;;
3817;SDS011;1924;48.078;11.516;2022-08-07T12:14:54;33.90;;;0.80;;
3817;SDS011;1924;48.078;11.516;2022-08-07T12:17:29;33.90;;;0.80;;
3817;SDS011;1924;48.078;11.516;2022-08-07T12:20:03;33.70;;;0.80;;
3817;SDS011;1924;48.078;11.516;2022-08-07T12:22:38;33.67;;;0.80;;
3817;SDS011;1924;48.078;11.516;2022-08-07T12:25:10;33.60;;;0.80;;
3817;SDS011;1924;48.078;11.516;2022-08-07T12:28:02;33.63;;;0.80;;
3817;SDS011;1924;48.078;11.516;2022-08-07T12:30:35;33.73;;;0.80;;
3817;SDS011;1924;48.078;11.516;2022-08-07T12:33:09;33.47;;;0.80;;
3817;SDS011;1924;48.078;11.516;2022-08-07T12:35:42;33.60;;;0.80;;
3817;SDS011;1924;48.078;11.516;2022-08-07T12:38:10;33.77;;;0.80;;
3817;SDS011;1924;48.078;11.516;2022-08-07T12:40:39;33.73;;;0.80;;
3817;SDS011;1924;48.078;11.516;2022-08-07T12:43:09;33.43;;;0.80;;
3817;SDS011;1924;48.078;11.516;2022-08-07T12:45:44;33.77;;;0.80;;
3817;SDS011;1924;48.078;11.516;2022-08-07T12:48:23;33.80;;;0.80;;
3817;SDS011;1924;48.078;11.516;2022-08-07T12:50:58;33.67;;;0.80;;
3817;SDS011;1924;48.078;11.516;2022-08-07T12:53:30;33.60;;;0.80;;
3817;SDS011;1924;48.078;11.516;2022-08-07T12:56:05;33.70;;;0.80;;
3817;SDS011;1924;48.078;11.516;2022-08-07T12:58:36;33.43;;;0.80;;
3817;SDS011;1924;48.078;11.516;2022-08-07T13:01:05;33.37;;;0.80;;
3817;SDS011;1924;48.078;11.516;2022-08-07T13:03:57;33.37;;;0.80;;
3817;SDS011;1924;48.078;11.516;2022-08-07T13:06:45;33.30;;;0.90;;
3817;SDS011;1924;48.078;11.516;2022-08-07T13:09:34;33.53;;;0.80;;
3817;SDS011;1924;48.078;11.516;2022-08-07T13:12:27;33.50;;;0.80;;
3817;SDS011;1924;48.078;11.516;2022-08-07T13:15:03;33.37;;;0.80;;
3817;SDS011;1924;48.078;11.516;2022-08-07T13:17:41;33.47;;;0.80;;
3817;SDS011;1924;48.078;11.516;2022-08-07T13:20:17;33.50;;;0.80;;
3817;SDS011;1924;48.078;11.516;2022-08-07T13:22:51;33.50;;;0.80;;
3817;SDS011;1924;48.078;11.516;2022-08-07T13:25:25;33.50;;;0.80;;
3817;SDS011;1924;48.078;11.516;2022-08-07T13:27:57;33.43;;;0.80;;
3817;SDS011;1924;48.078;11.516;2022-08-07T13:30:28;33.33;;;0.80;;
3817;SDS011;1924;48.078;11.516;2022-08-07T13:32:57;33.40;;;0.80;;
3817;SDS011;1924;48.078;11.516;2022-08-07T13:35:35;33.30;;;0.77;;
3817;SDS011;1924;48.078;11.516;2022-08-07T13:38:07;33.40;;;0.80;;
3817;SDS011;1924;48.078;11.516;2022-08-07T13:40:41;33.40;;;0.80;;
3817;SDS011;1924;48.078;11.516;2022-08-07T13:43:14;33.47;;;0.80;;
3817;SDS011;1924;48.078;11.516;2022-08-07T13:45:43;33.47;;;0.80;;
3817;SDS011;1924;48.078;11.516;2022-08-07T13:48:12;33.50;;;0.80;;
3817;SDS011;1924;48.078;11.516;2022-08-07T13:50:42;33.13;;;0.80;;
3817;SDS011;1924;48.078;11.516;2022-08-07T13:53:09;33.30;;;0.80;;
3817;SDS011;1924;48.078;11.516;2022-08-07T13:55:44;33.30;;;0.80;;
3817;SDS011;1924;48.078;11.516;2022-08-07T13:58:12;33.40;;;0.80;;
3817;SDS011;1924;48.078;11.516;2022-08-07T14:00:58;33.23;;;0.80;;
3817;SDS011;1924;48.078;11.516;2022-08-07T14:03:26;33.40;;;0.80;;
3817;SDS011;1924;48.078;11.516;2022-08-07T14:06:02;33.33;;;0.80;;
3817;SDS011;1924;48.078;11.516;2022-08-07T14:08:29;33.50;;;0.80;;
3817;SDS011;1924;48.078;11.516;2022-08-07T14:10:57;33.50;;;0.80;;
3817;SDS011;1924;48.078;11.516;2022-08-07T14:13:29;33.57;;;0.80;;
3817;SDS011;1924;48.078;11.516;2022-08-07T14:15:59;33.50;;;0.80;;
3817;SDS011;1924;48.078;11.516;2022-08-07T14:18:30;33.23;;;0.80;;
3817;SDS011;1924;48.078;11.516;2022-08-07T14:21:06;33.40;;;0.80;;
3817;SDS011;1924;48.078;11.516;2022-08-07T14:23:36;33.47;;;0.80;;
3817;SDS011;1924;48.078;11.516;2022-08-07T14:26:06;33.40;;;0.80;;
3817;SDS011;1924;48.078;11.516;2022-08-07T14:28:38;33.37;;;0.80;;
3817;SDS011;1924;48.078;11.516;2022-08-07T14:31:08;33.37;;;0.80;;
3817;SDS011;1924;48.078;11.516;2022-08-07T14:33:35;33.60;;;0.80;;
3817;SDS011;1924;48.078;11.516;2022-08-07T14:36:05;33.60;;;0.80;;
3817;SDS011;1924;48.078;11.516;2022-08-07T14:38:33;33.27;;;0.80;;
3817;SDS011;1924;48.078;11.516;2022-08-07T14:41:02;33.80;;;0.80;;
3817;SDS011;1924;48.078;11.516;2022-08-07T14:43:32;33.47;;;0.80;;
3817;SDS011;1924;48.078;11.516;2022-08-07T14:46:03;33.57;;;0.80;;
3817;SDS011;1924;48.078;11.516;2022-08-07T14:48:33;33.57;;;0.80;;
3817;SDS011;1924;48.078;11.516;2022-08-07T14:51:04;33.67;;;0.80;;
3817;SDS011;1924;48.078;11.516;2022-08-07T14:53:37;33.70;;;0.80;;
3817;SDS011;1924;48.078;11.516;2022-08-07T14:56:06;33.60;;;0.77;;
3817;SDS011;1924;48.078;11.516;2022-08-07T14:58:35;33.70;;;0.80;;
3817;SDS011;1924;48.078;11.516;2022-08-07T15:01:05;33.60;;;0.80;;
3817;SDS011;1924;48.078;11.516;2022-08-07T15:03:34;34.20;;;0.80;;
3817;SDS011;1924;48.078;11.516;2022-08-07T15:06:04;33.60;;;0.80;;
3817;SDS011;1924;48.078;11.516;2022-08-07T15:08:34;33.70;;;0.80;;
3817;SDS011;1924;48.078;11.516;2022-08-07T15:11:04;33.70;;;0.80;;
3817;SDS011;1924;48.078;11.516;2022-08-07T15:13:34;33.60;;;0.80;;
3817;SDS011;1924;48.078;11.516;2022-08-07T15:16:06;33.63;;;0.80;;
3817;SDS011;1924;48.078;11.516;2022-08-07T15:18:36;33.70;;;0.80;;
3817;SDS011;1924;48.078;11.516;2022-08-07T15:21:11;33.50;;;0.80;;
3817;SDS011;1924;48.078;11.516;2022-08-07T15:23:42;33.70;;;0.80;;
3817;SDS011;1924;48.078;11.516;2022-08-07T15:26:13;33.63;;;0.80;;
3817;SDS011;1924;48.078;11.516;2022-08-07T15:28:44;33.80;;;0.80;;
3817;SDS011;1924;48.078;11.516;2022-08-07T15:31:13;33.63;;;0.80;;